createdAt,value
2018-09-03T00:00:02.204Z,6.50
2018-09-03T00:02:34.516Z,5.00
2018-09-03T00:05:06.855Z,5.77
2018-09-03T00:07:39.185Z,3.70
2018-09-03T00:10:11.512Z,4.87
2018-09-03T00:12:43.833Z,5.20
2018-09-03T00:15:16.168Z,4.33
2018-09-03T00:17:48.491Z,3.67
2018-09-03T00:20:20.824Z,5.20
2018-09-03T00:22:53.144Z,4.07
2018-09-03T00:25:25.470Z,7.37
2018-09-03T00:27:57.784Z,4.87
2018-09-03T00:30:30.092Z,4.60
2018-09-03T00:33:02.405Z,4.60
2018-09-03T00:35:34.736Z,6.80
2018-09-03T00:38:07.049Z,4.53
2018-09-03T00:40:39.365Z,3.83
2018-09-03T00:43:11.680Z,6.10
2018-09-03T00:45:44.013Z,3.83
2018-09-03T00:48:16.332Z,4.97
2018-09-03T00:50:48.664Z,8.17
2018-09-03T00:53:21.003Z,3.97
2018-09-03T00:55:53.339Z,4.20
2018-09-03T00:58:25.661Z,4.13
2018-09-03T01:00:57.981Z,4.03
2018-09-03T01:03:31.270Z,4.93
2018-09-03T01:08:53.341Z,4.17
2018-09-03T01:11:27.000Z,5.43
2018-09-03T01:13:59.310Z,4.60
2018-09-03T01:16:31.649Z,5.03
2018-09-03T01:19:04.100Z,4.47
2018-09-03T01:21:36.438Z,4.77
2018-09-03T01:24:08.751Z,3.50
2018-09-03T01:26:41.110Z,6.27
2018-09-03T01:29:13.428Z,4.93
2018-09-03T01:31:45.773Z,4.47
2018-09-03T01:34:18.093Z,6.97
2018-09-03T01:36:50.549Z,6.43
2018-09-03T01:39:22.854Z,5.27
2018-09-03T01:41:55.176Z,4.37
2018-09-03T01:44:27.521Z,4.70
2018-09-03T01:46:59.840Z,5.63
2018-09-03T01:49:32.164Z,6.03
2018-09-03T01:52:04.480Z,7.33
2018-09-03T01:54:36.799Z,4.30
2018-09-03T01:57:09.116Z,5.07
2018-09-03T01:59:41.437Z,5.87
2018-09-03T02:02:13.759Z,4.80
2018-09-03T02:04:46.072Z,4.30
2018-09-03T02:07:18.385Z,4.97
2018-09-03T02:09:50.700Z,4.37
2018-09-03T02:12:23.027Z,4.57
2018-09-03T02:14:55.337Z,4.60
2018-09-03T02:17:27.656Z,4.10
2018-09-03T02:19:59.992Z,4.80
2018-09-03T02:22:32.320Z,4.10
2018-09-03T02:25:05.176Z,6.33
2018-09-03T02:27:37.492Z,4.83
2018-09-03T02:30:10.113Z,3.97
2018-09-03T02:32:42.440Z,6.33
2018-09-03T02:35:14.745Z,3.83
2018-09-03T02:37:47.076Z,5.20
2018-09-03T02:40:19.709Z,4.80
2018-09-03T02:42:52.036Z,5.57
2018-09-03T02:45:24.351Z,7.70
2018-09-03T02:47:56.672Z,5.57
2018-09-03T02:50:28.987Z,5.40
2018-09-03T02:53:01.304Z,5.17
2018-09-03T02:55:33.620Z,4.67
2018-09-03T02:58:05.952Z,6.53
2018-09-03T03:00:38.265Z,5.50
2018-09-03T03:03:10.576Z,4.97
2018-09-03T03:05:42.883Z,5.30
2018-09-03T03:08:15.201Z,5.07
2018-09-03T03:10:47.524Z,4.70
2018-09-03T03:13:19.836Z,4.97
2018-09-03T03:15:52.150Z,4.47
2018-09-03T03:18:24.492Z,4.70
2018-09-03T03:20:57.130Z,5.00
2018-09-03T03:23:29.440Z,5.33
2018-09-03T03:26:01.746Z,5.77
2018-09-03T03:28:34.064Z,6.40
2018-09-03T03:31:06.427Z,4.47
2018-09-03T03:33:38.765Z,4.40
2018-09-03T03:36:11.079Z,4.50
2018-09-03T03:38:43.416Z,4.40
2018-09-03T03:41:15.740Z,5.33
2018-09-03T03:43:48.068Z,4.77
2018-09-03T03:46:20.416Z,4.20
2018-09-03T03:48:52.763Z,6.10
2018-09-03T03:51:25.097Z,4.40
2018-09-03T03:53:57.422Z,5.37
2018-09-03T03:56:29.740Z,5.33
2018-09-03T03:59:02.464Z,4.87
2018-09-03T04:01:34.803Z,4.37
2018-09-03T04:04:07.143Z,5.63
2018-09-03T04:06:39.471Z,5.27
2018-09-03T04:09:11.788Z,5.97
2018-09-03T04:11:44.109Z,5.53
2018-09-03T04:14:16.483Z,4.87
2018-09-03T04:16:48.844Z,5.43
2018-09-03T04:19:21.184Z,6.33
2018-09-03T04:21:53.500Z,4.47
2018-09-03T04:24:25.864Z,5.83
2018-09-03T04:26:58.203Z,5.37
2018-09-03T04:29:30.542Z,4.33
2018-09-03T04:32:02.877Z,4.63
2018-09-03T04:34:35.217Z,4.10
2018-09-03T04:37:07.565Z,5.07
2018-09-03T04:39:39.912Z,5.30
2018-09-03T04:42:12.256Z,6.33
2018-09-03T04:44:44.597Z,4.80
2018-09-03T04:47:16.936Z,4.13
2018-09-03T04:49:49.271Z,4.90
2018-09-03T04:52:21.592Z,4.80
2018-09-03T04:54:53.943Z,5.07
2018-09-03T04:57:26.297Z,5.27
2018-09-03T04:59:58.650Z,6.37
2018-09-03T05:02:30.986Z,4.80
2018-09-03T05:05:03.379Z,5.10
2018-09-03T05:07:35.674Z,4.33
2018-09-03T05:10:08.025Z,6.20
2018-09-03T05:12:40.452Z,4.67
2018-09-03T05:15:12.812Z,7.97
2018-09-03T05:17:45.140Z,5.60
2018-09-03T05:20:17.712Z,4.90
2018-09-03T05:22:50.049Z,6.87
2018-09-03T05:25:22.419Z,7.17
2018-09-03T05:27:54.737Z,6.67
2018-09-03T05:30:27.089Z,6.27
2018-09-03T05:32:59.426Z,4.63
2018-09-03T05:35:31.763Z,7.70
2018-09-03T05:38:04.110Z,7.00
2018-09-03T05:40:36.749Z,7.80
2018-09-03T05:43:10.265Z,7.43
2018-09-03T05:45:44.112Z,6.63
2018-09-03T05:48:16.461Z,5.83
2018-09-03T05:50:49.024Z,6.87
2018-09-03T05:53:24.021Z,5.53
2018-09-03T05:55:58.468Z,10.53
2018-09-03T05:58:31.040Z,15.33
2018-09-03T06:01:04.466Z,10.60
2018-09-03T06:03:38.215Z,7.03
2018-09-03T06:06:10.548Z,9.57
2018-09-03T06:08:42.892Z,8.17
2018-09-03T06:11:15.390Z,11.90
2018-09-03T06:13:47.565Z,10.30
2018-09-03T06:16:21.935Z,12.50
2018-09-03T06:18:55.432Z,9.43
2018-09-03T06:21:31.780Z,9.33
2018-09-03T06:24:06.716Z,9.50
2018-09-03T06:26:39.088Z,12.33
2018-09-03T06:29:11.426Z,8.13
2018-09-03T06:31:43.748Z,8.40
2018-09-03T06:34:16.090Z,7.73
2018-09-03T06:36:48.424Z,6.77
2018-09-03T06:39:20.844Z,6.83
2018-09-03T06:41:53.075Z,7.10
2018-09-03T06:44:25.396Z,10.67
2018-09-03T06:46:57.724Z,7.00
2018-09-03T06:49:30.056Z,8.23
2018-09-03T06:52:02.401Z,6.90
2018-09-03T06:54:34.721Z,8.67
2018-09-03T06:57:07.072Z,7.53
2018-09-03T06:59:39.490Z,7.80
2018-09-03T07:02:11.768Z,6.93
2018-09-03T07:04:44.132Z,7.87
2018-09-03T07:07:16.456Z,8.87
2018-09-03T07:09:48.772Z,7.63
2018-09-03T07:12:21.126Z,7.47
2018-09-03T07:14:53.455Z,11.77
2018-09-03T07:17:25.779Z,7.03
2018-09-03T07:19:58.104Z,6.33
2018-09-03T07:22:30.446Z,6.63
2018-09-03T07:25:02.784Z,8.73
2018-09-03T07:27:35.113Z,10.83
2018-09-03T07:30:07.432Z,11.43
2018-09-03T07:32:40.452Z,9.23
2018-09-03T07:35:12.808Z,11.80
2018-09-03T07:37:45.117Z,11.60
2018-09-03T07:40:17.504Z,8.40
2018-09-03T07:42:49.837Z,12.20
2018-09-03T07:45:22.166Z,9.43
2018-09-03T07:47:54.576Z,11.13
2018-09-03T07:50:26.872Z,11.23
2018-09-03T07:52:59.206Z,10.63
2018-09-03T07:55:38.297Z,10.17
2018-09-03T07:58:10.637Z,11.57
2018-09-03T08:00:42.948Z,8.63
2018-09-03T08:03:15.278Z,8.43
2018-09-03T08:05:47.580Z,12.60
2018-09-03T08:08:19.921Z,13.23
2018-09-03T08:10:52.230Z,10.07
2018-09-03T08:13:24.552Z,12.53
2018-09-03T08:15:56.862Z,10.30
2018-09-03T08:18:29.200Z,13.20
2018-09-03T08:21:01.517Z,11.40
2018-09-03T08:23:33.841Z,15.80
2018-09-03T08:26:06.168Z,8.77
2018-09-03T08:28:38.871Z,13.20
2018-09-03T08:31:11.182Z,14.53
2018-09-03T08:33:43.514Z,12.97
2018-09-03T08:36:15.885Z,12.60
2018-09-03T08:38:48.214Z,12.83
2018-09-03T08:41:20.542Z,10.47
2018-09-03T08:43:52.952Z,10.13
2018-09-03T08:46:25.280Z,13.77
2018-09-03T08:48:57.600Z,18.57
2018-09-03T08:51:29.916Z,85.70
2018-09-03T08:54:02.256Z,47.93
2018-09-03T08:56:34.576Z,12.57
2018-09-03T08:59:06.917Z,16.40
2018-09-03T09:01:39.236Z,16.60
2018-09-03T09:04:11.662Z,15.00
2018-09-03T09:06:44.048Z,23.93
2018-09-03T09:09:16.368Z,30.57
2018-09-03T09:11:48.994Z,47.63
2018-09-03T09:14:21.300Z,43.83
2018-09-03T09:16:53.618Z,28.00
2018-09-03T09:19:25.970Z,14.93
2018-09-03T09:21:58.301Z,25.23
2018-09-03T09:24:30.716Z,12.90
2018-09-03T09:27:02.949Z,11.67
2018-09-03T09:29:35.376Z,12.03
2018-09-03T09:32:07.682Z,13.30
2018-09-03T09:34:40.028Z,16.13
2018-09-03T09:37:12.328Z,12.17
2018-09-03T09:39:44.666Z,11.20
2018-09-03T09:42:16.980Z,13.37
2018-09-03T09:44:49.298Z,13.17
2018-09-03T09:47:21.612Z,13.03
2018-09-03T09:49:54.259Z,13.10
2018-09-03T09:52:26.589Z,12.27
2018-09-03T09:54:59.018Z,10.37
2018-09-03T09:57:31.271Z,13.83
2018-09-03T10:00:03.681Z,14.10
2018-09-03T10:02:35.998Z,12.20
2018-09-03T10:05:08.316Z,12.63
2018-09-03T10:07:40.632Z,15.60
2018-09-03T10:10:12.952Z,16.93
2018-09-03T10:12:45.288Z,16.50
2018-09-03T10:15:17.720Z,12.47
2018-09-03T10:17:50.037Z,15.97
2018-09-03T10:20:22.516Z,12.73
2018-09-03T10:22:54.821Z,15.00
2018-09-03T10:25:27.144Z,12.23
2018-09-03T10:27:59.460Z,13.83
2018-09-03T10:30:31.783Z,12.83
2018-09-03T10:33:04.101Z,11.00
2018-09-03T10:35:36.485Z,11.07
2018-09-03T10:38:08.811Z,13.00
2018-09-03T10:40:41.235Z,12.83
2018-09-03T10:43:13.636Z,11.33
2018-09-03T10:45:45.972Z,11.50
2018-09-03T10:48:18.296Z,10.18
2018-09-03T10:50:50.613Z,15.40
2018-09-03T10:53:22.936Z,11.90
2018-09-03T10:55:55.274Z,10.98
2018-09-03T10:58:27.781Z,10.80
2018-09-03T11:01:00.088Z,9.83
2018-09-03T11:03:32.492Z,12.23
2018-09-03T11:06:05.124Z,8.90
2018-09-03T11:08:37.476Z,12.70
2018-09-03T11:11:09.844Z,15.20
2018-09-03T11:13:42.164Z,10.72
2018-09-03T11:16:14.492Z,10.00
2018-09-03T11:18:46.805Z,9.08
2018-09-03T11:21:19.298Z,9.45
2018-09-03T11:23:51.460Z,7.90
2018-09-03T11:26:24.288Z,10.08
2018-09-03T11:28:56.617Z,9.50
2018-09-03T11:31:28.954Z,13.05
2018-09-03T11:34:01.454Z,10.05
2018-09-03T11:36:34.108Z,10.95
2018-09-03T11:39:07.493Z,15.25
2018-09-03T11:41:39.828Z,11.08
2018-09-03T11:44:12.274Z,10.80
2018-09-03T11:46:44.616Z,19.12
2018-09-03T11:49:17.259Z,14.78
2018-09-03T11:51:49.591Z,10.55
2018-09-03T11:54:21.934Z,9.40
2018-09-03T11:56:54.249Z,9.93
2018-09-03T11:59:26.596Z,12.27
2018-09-03T12:01:58.960Z,10.30
2018-09-03T12:04:31.248Z,12.40
2018-09-03T12:07:10.269Z,14.18
2018-09-03T12:09:42.592Z,9.07
2018-09-03T12:12:14.928Z,12.20
2018-09-03T12:14:47.248Z,13.37
2018-09-03T12:17:19.573Z,12.20
2018-09-03T12:19:51.905Z,11.65
2018-09-03T12:22:24.248Z,10.50
2018-09-03T12:24:56.588Z,8.53
2018-09-03T12:27:28.926Z,11.83
2018-09-03T12:30:01.247Z,13.27
2018-09-03T12:32:33.567Z,16.00
2018-09-03T12:35:05.892Z,17.13
2018-09-03T12:37:38.203Z,13.37
2018-09-03T12:40:10.534Z,12.67
2018-09-03T12:42:42.844Z,16.60
2018-09-03T12:45:15.172Z,19.73
2018-09-03T12:47:47.500Z,16.13
2018-09-03T12:50:19.855Z,10.67
2018-09-03T12:52:52.160Z,11.70
2018-09-03T12:55:24.501Z,9.87
2018-09-03T12:57:57.104Z,9.30
2018-09-03T13:00:29.509Z,16.00
2018-09-03T13:03:01.964Z,10.73
2018-09-03T13:05:34.164Z,13.67
2018-09-03T13:08:06.504Z,14.70
2018-09-03T13:10:38.821Z,14.80
2018-09-03T13:13:11.166Z,13.13
2018-09-03T13:15:43.493Z,14.17
2018-09-03T13:18:15.813Z,18.00
2018-09-03T13:20:48.141Z,18.57
2018-09-03T13:23:20.780Z,19.57
2018-09-03T13:25:53.105Z,15.25
2018-09-03T13:28:25.432Z,13.97
2018-09-03T13:30:57.769Z,19.77
2018-09-03T13:33:30.099Z,19.27
2018-09-03T13:36:02.466Z,16.47
2018-09-03T13:38:34.767Z,16.97
2018-09-03T13:41:07.095Z,18.77
2018-09-03T13:43:39.412Z,18.43
2018-09-03T13:46:11.743Z,15.65
2018-09-03T13:48:44.060Z,16.37
2018-09-03T13:51:16.399Z,9.70
2018-09-03T13:53:48.814Z,12.25
2018-09-03T13:56:21.214Z,16.32
2018-09-03T13:58:53.505Z,15.65
2018-09-03T14:01:25.833Z,17.10
2018-09-03T14:03:58.206Z,17.20
2018-09-03T14:06:30.552Z,18.77
2018-09-03T14:09:03.716Z,17.83
2018-09-03T14:11:36.083Z,20.05
2018-09-03T14:14:08.385Z,16.12
2018-09-03T14:16:40.712Z,18.27
2018-09-03T14:19:13.028Z,17.87
2018-09-03T14:21:45.373Z,19.23
2018-09-03T14:24:17.682Z,14.15
2018-09-03T14:26:50.017Z,14.50
2018-09-03T14:29:22.353Z,19.85
2018-09-03T14:31:54.694Z,14.87
2018-09-03T14:34:27.007Z,18.45
2018-09-03T14:36:59.408Z,18.42
2018-09-03T14:39:31.716Z,17.65
2018-09-03T14:42:04.049Z,17.85
2018-09-03T14:44:36.368Z,19.82
2018-09-03T14:47:08.730Z,19.33
2018-09-03T14:49:41.122Z,18.73
2018-09-03T14:52:13.373Z,17.40
2018-09-03T14:54:45.719Z,16.27
2018-09-03T14:57:18.058Z,20.33
2018-09-03T14:59:50.405Z,19.53
2018-09-03T15:02:22.761Z,17.53
2018-09-03T15:04:55.081Z,16.37
2018-09-03T15:07:27.416Z,14.53
2018-09-03T15:09:59.754Z,22.75
2018-09-03T15:12:32.133Z,19.80
2018-09-03T15:15:04.555Z,17.97
2018-09-03T15:17:36.796Z,16.63
2018-09-03T15:20:09.131Z,18.37
2018-09-03T15:22:41.496Z,15.13
2018-09-03T15:25:13.827Z,22.43
2018-09-03T15:27:46.163Z,21.07
2018-09-03T15:30:18.504Z,20.23
2018-09-03T15:32:50.857Z,17.43
2018-09-03T15:35:23.190Z,15.33
2018-09-03T15:37:55.540Z,21.67
2018-09-03T15:40:28.102Z,17.70
2018-09-03T15:43:00.554Z,17.03
2018-09-03T15:45:32.813Z,19.30
2018-09-03T15:48:05.184Z,20.20
2018-09-03T15:50:37.624Z,20.43
2018-09-03T15:53:10.129Z,17.77
2018-09-03T15:55:42.473Z,18.23
2018-09-03T15:58:14.796Z,21.63
2018-09-03T16:00:47.315Z,14.10
2018-09-03T16:03:19.638Z,19.83
2018-09-03T16:05:51.963Z,19.70
2018-09-03T16:08:24.297Z,15.67
2018-09-03T16:10:56.664Z,18.03
2018-09-03T16:13:29.040Z,20.07
2018-09-03T16:16:01.557Z,17.27
2018-09-03T16:18:33.909Z,19.67
2018-09-03T16:21:06.275Z,18.90
2018-09-03T16:23:38.882Z,21.23
2018-09-03T16:26:11.647Z,23.97
2018-09-03T16:28:44.143Z,24.07
2018-09-03T16:31:16.666Z,23.13
2018-09-03T16:33:49.178Z,20.30
2018-09-03T16:36:21.644Z,19.40
2018-09-03T16:38:54.031Z,19.40
2018-09-03T16:41:26.296Z,19.43
2018-09-03T16:43:58.619Z,22.00
2018-09-03T16:46:30.945Z,21.83
2018-09-03T16:49:03.297Z,21.30
2018-09-03T16:51:35.632Z,23.17
2018-09-03T16:54:07.964Z,21.63
2018-09-03T16:56:40.546Z,22.40
2018-09-03T16:59:12.889Z,22.90
2018-09-03T17:01:45.209Z,22.30
2018-09-03T17:04:17.556Z,22.97
2018-09-03T17:06:49.880Z,23.23
2018-09-03T17:09:22.214Z,22.30
2018-09-03T17:11:54.674Z,20.70
2018-09-03T17:14:26.996Z,21.07
2018-09-03T17:16:59.341Z,25.97
2018-09-03T17:19:31.680Z,20.13
2018-09-03T17:22:04.060Z,22.40
2018-09-03T17:24:36.426Z,21.00
2018-09-03T17:27:08.754Z,19.93
2018-09-03T17:29:41.105Z,19.40
2018-09-03T17:32:13.457Z,23.33
2018-09-03T17:34:45.806Z,23.90
2018-09-03T17:37:18.201Z,21.23
2018-09-03T17:39:50.562Z,22.77
2018-09-03T17:42:22.881Z,22.20
2018-09-03T17:44:55.249Z,19.43
2018-09-03T17:47:27.592Z,19.43
2018-09-03T17:50:00.264Z,19.93
2018-09-03T17:52:32.602Z,20.43
2018-09-03T17:55:05.425Z,21.30
2018-09-03T17:57:37.832Z,18.63
2018-09-03T18:00:10.177Z,20.83
2018-09-03T18:02:42.510Z,18.73
2018-09-03T18:05:14.868Z,22.67
2018-09-03T18:07:47.269Z,17.03
2018-09-03T18:10:19.604Z,22.23
2018-09-03T18:12:51.956Z,20.87
2018-09-03T18:15:24.303Z,19.60
2018-09-03T18:17:56.633Z,18.77
2018-09-03T18:20:28.966Z,19.40
2018-09-03T18:23:01.379Z,20.43
2018-09-03T18:25:33.711Z,22.93
2018-09-03T18:28:06.045Z,23.07
2018-09-03T18:30:38.385Z,20.57
2018-09-03T18:33:10.801Z,19.67
2018-09-03T18:35:43.141Z,21.80
2018-09-03T18:38:15.468Z,20.67
2018-09-03T18:40:47.888Z,20.40
2018-09-03T18:43:20.208Z,22.07
2018-09-03T18:45:52.555Z,24.97
2018-09-03T18:48:24.893Z,26.33
2018-09-03T18:50:57.244Z,23.47
2018-09-03T18:53:29.580Z,23.63
2018-09-03T18:56:01.975Z,24.07
2018-09-03T18:58:34.300Z,23.60
2018-09-03T19:01:06.696Z,22.83
2018-09-03T19:03:39.045Z,20.47
2018-09-03T19:06:12.012Z,21.07
2018-09-03T19:08:44.289Z,20.30
2018-09-03T19:11:16.611Z,17.67
2018-09-03T19:13:48.968Z,22.87
2018-09-03T19:16:21.304Z,21.93
